Corning, California
Current Conditions -  °F | °C
As of 1:54 AM on Thursday 23 Oct 2014 (Local Time) from KRBL Reporting Station
Overcast Overcast  
Wind Chill: 58°   Ceiling: 10000
Heat Index: 58°   Visibility: 10mi
Dew Point: 53°   Wind: 6mph
Humidity: 84%   Direction: 330°NNW
Pressure: 30.02"   Gusts: NA
Location:  39.93°N, 122.17°W
Report Text: KRBL 230854Z AUTO 33005KT 10SM OVC100 14/12 A3002 RMK AO2 RAE41 SLP164 P0000 60000 T01440117 55002
Loading
Personal Weather Stations






























Interactive Weather Map
Tropical Storm Tracking
New forecast layout! Learn more

10-Day Weather Forecast

Advertisements
Track Severe Weather on mobile